Terminal Aerodrome Forecast
Issued by NWS

Home | Current Version | Previous Version | Text Only | Print | Product List | Glossary On
Versions: 1 2 3 4 5 6 7 8 9 10 11 12 13 14 15 16 17 18 19 20
000
FTUS45 KLKN 241700
TAFEKO
TAF
KEKO 241730Z 2418/2518 24016G26KT P6SM SCT080 OVC150
     FM242300 26016G26KT P6SM SCT070 OVC150
     FM250200 25009KT P6SM VCSH SCT050 OVC090
     FM250800 23009KT P6SM -SHRA SCT020 OVC040
     FM251700 25014G24KT P6SM -SHRA SCT030 OVC050=

USA.gov is the U.S. government's official web portal to all federal, state and local government web resources and services.